DAAT/TMR METAR and TAF weather

Enter ICAO airport designator
Station Type Date Time Source
DAAT METAR 2021/07/29 17:30 UTC NOAA

DAAT 291730Z 19004KT 8000 -TSRA FEW040CB SCT046 25/15 Q1021


Station Type Date Time Source
DAAT Decoded METAR 2021/07/29 17:30 UTC NOAA

Tamanrasset / Aguenna, Algeria (DAAT) 22-49N 005-28E
Jul 29, 2021 - 01:30 PM EDT / 2021.07.29 1730 UTC
Wind: from the S (190 degrees) at 5 MPH (4 KT):0
Visibility: 4 mile(s):0
Sky conditions: partly cloudy
Weather: light rain with thunder; Cumulonimbus clouds observed
Temperature: 77 F (25 C)
Dew Point: 59 F (15 C)
Relative Humidity: 53%
Pressure (altimeter): 30.15 in. Hg (1021 hPa)
ob: DAAT 291730Z 19004KT 8000 -TSRA FEW040CB SCT046 25/15 Q1021
cycle: 17

Station Type Date Time Source
DAAT TAF 2021/07/29 18:33 UTC NOAA

TAF DAAT 291700Z 2918/3018 30010KT 6000 FEW040 SCT046
TEMPO 2918/2921 02020G30KT TSRA FEW040CB

Example: see airport list